createdAt,value
2018-09-24T00:01:38.251Z,31.00
2018-09-24T00:04:14.671Z,31.00
2018-09-24T00:09:13.767Z,31.00
2018-09-24T00:11:49.807Z,30.99
2018-09-24T00:14:26.105Z,31.00
2018-09-24T00:17:02.269Z,31.01
2018-09-24T00:19:38.300Z,31.00
2018-09-24T00:22:14.910Z,31.00
2018-09-24T00:24:51.466Z,30.99
2018-09-24T00:27:27.912Z,30.91
2018-09-24T00:30:04.163Z,30.99
2018-09-24T00:32:40.357Z,30.98
2018-09-24T00:35:16.923Z,30.97
2018-09-24T00:37:52.994Z,30.98
2018-09-24T00:40:29.371Z,30.96
2018-09-24T00:43:06.093Z,30.96
2018-09-24T00:45:44.097Z,30.92
2018-09-24T00:48:21.111Z,30.91
2018-09-24T00:50:57.512Z,30.90
2018-09-24T00:53:33.760Z,30.90
2018-09-24T00:56:10.100Z,30.88
2018-09-24T00:58:46.227Z,30.86
2018-09-24T01:01:22.335Z,30.88
2018-09-24T01:03:59.149Z,30.87
2018-09-24T01:06:35.424Z,30.87
2018-09-24T01:09:14.568Z,30.86
2018-09-24T01:11:51.606Z,30.87
2018-09-24T01:14:28.187Z,30.87
2018-09-24T01:17:04.603Z,30.85
2018-09-24T01:19:41.009Z,30.83
2018-09-24T01:22:17.365Z,30.82
2018-09-24T01:24:54.281Z,30.83
2018-09-24T01:27:30.906Z,30.83
2018-09-24T01:30:06.852Z,30.82
2018-09-24T01:32:43.505Z,30.81
2018-09-24T01:35:20.271Z,30.79
2018-09-24T01:37:56.759Z,30.78
2018-09-24T01:40:33.133Z,30.78
2018-09-24T01:43:09.662Z,30.78
2018-09-24T01:45:46.331Z,30.77
2018-09-24T01:48:23.087Z,30.78
2018-09-24T01:50:59.382Z,30.77
2018-09-24T01:53:35.638Z,30.76
2018-09-24T01:56:12.599Z,30.76
2018-09-24T01:58:48.882Z,30.74
2018-09-24T02:01:25.115Z,30.72
2018-09-24T02:04:01.354Z,30.71
2018-09-24T02:06:37.523Z,30.70
2018-09-24T02:09:14.072Z,30.67
2018-09-24T02:11:50.595Z,30.66
2018-09-24T02:14:27.780Z,30.63
2018-09-24T02:17:04.415Z,30.64
2018-09-24T02:19:40.954Z,30.63
2018-09-24T02:22:19.668Z,30.61
2018-09-24T02:24:55.695Z,30.60
2018-09-24T02:27:33.187Z,30.60
2018-09-24T02:30:10.357Z,30.58
2018-09-24T02:32:47.139Z,30.56
2018-09-24T02:35:23.785Z,30.54
2018-09-24T02:38:00.263Z,30.52
2018-09-24T02:40:37.126Z,30.50
2018-09-24T02:43:14.198Z,30.49
2018-09-24T02:45:50.598Z,30.47
2018-09-24T02:48:27.683Z,30.45
2018-09-24T02:51:04.295Z,30.44
2018-09-24T02:53:44.754Z,30.41
2018-09-24T02:56:21.554Z,30.41
2018-09-24T02:58:58.117Z,30.33
2018-09-24T03:01:38.858Z,30.35
2018-09-24T03:04:15.179Z,30.34
2018-09-24T03:06:51.657Z,30.31
2018-09-24T03:09:28.169Z,30.30
2018-09-24T03:12:04.723Z,30.29
2018-09-24T03:14:41.002Z,30.28
2018-09-24T03:17:21.866Z,30.25
2018-09-24T03:19:58.391Z,30.25
2018-09-24T03:22:34.906Z,30.23
2018-09-24T03:25:11.974Z,30.22
2018-09-24T03:27:48.068Z,30.21
2018-09-24T03:30:24.265Z,30.19
2018-09-24T03:33:00.681Z,30.18
2018-09-24T03:35:37.379Z,30.16
2018-09-24T03:38:14.154Z,30.11
2018-09-24T03:40:50.328Z,30.14
2018-09-24T03:43:26.778Z,30.14
2018-09-24T03:46:03.107Z,30.12
2018-09-24T03:48:38.984Z,30.10
2018-09-24T03:51:15.569Z,30.08
2018-09-24T03:53:53.874Z,30.07
2018-09-24T03:56:30.274Z,30.04
2018-09-24T03:59:06.818Z,30.01
2018-09-24T04:01:42.799Z,30.01
2018-09-24T04:04:22.749Z,30.00
2018-09-24T04:07:03.163Z,29.99
2018-09-24T04:09:43.259Z,29.99
2018-09-24T04:12:23.638Z,29.99
2018-09-24T04:15:04.028Z,29.97
2018-09-24T04:17:44.370Z,29.96
2018-09-24T04:20:24.745Z,29.94
2018-09-24T04:23:05.330Z,29.93
2018-09-24T04:25:45.669Z,29.90
2018-09-24T04:28:25.986Z,29.89
2018-09-24T04:31:05.429Z,29.88
2018-09-24T04:33:44.903Z,29.87
2018-09-24T04:36:24.496Z,29.88
2018-09-24T04:39:03.973Z,29.88
2018-09-24T04:41:43.556Z,29.90
2018-09-24T04:44:23.238Z,29.87
2018-09-24T04:47:02.760Z,29.87
2018-09-24T04:49:42.760Z,29.87
2018-09-24T04:52:23.177Z,29.87
2018-09-24T04:55:03.353Z,29.88
2018-09-24T04:57:43.169Z,29.88
2018-09-24T05:00:24.288Z,29.88
2018-09-24T05:03:04.649Z,29.87
2018-09-24T05:07:11.385Z,29.82
2018-09-24T05:09:51.185Z,29.82
2018-09-24T05:12:31.345Z,29.85
2018-09-24T05:15:11.673Z,29.84
2018-09-24T05:17:51.603Z,29.83
2018-09-24T05:20:31.181Z,29.82
2018-09-24T05:23:11.353Z,29.81
2018-09-24T05:25:51.783Z,29.81
2018-09-24T05:28:31.641Z,29.79
2018-09-24T05:31:11.821Z,29.74
2018-09-24T05:33:52.241Z,29.77
2018-09-24T05:36:32.146Z,29.76
2018-09-24T05:39:14.032Z,29.76
2018-09-24T05:41:54.111Z,29.74
2018-09-24T05:44:34.068Z,29.72
2018-09-24T05:47:14.165Z,29.74
2018-09-24T05:51:30.809Z,29.75
2018-09-24T05:57:22.378Z,29.78
2018-09-24T06:00:02.166Z,29.86
2018-09-24T06:02:41.933Z,29.92
2018-09-24T06:05:22.374Z,29.95
2018-09-24T06:09:30.403Z,29.94
2018-09-24T06:12:10.807Z,30.00
2018-09-24T06:14:48.712Z,30.02
2018-09-24T06:17:29.793Z,30.03
2018-09-24T06:20:10.227Z,30.07
2018-09-24T06:22:50.044Z,30.08
2018-09-24T06:25:29.923Z,30.08
2018-09-24T06:28:10.224Z,30.09
2018-09-24T06:30:50.790Z,30.09
2018-09-24T06:33:31.202Z,30.11
2018-09-24T06:36:11.220Z,30.11
2018-09-24T06:38:51.587Z,30.11
2018-09-24T06:41:31.448Z,30.12
2018-09-24T06:44:11.442Z,30.14
2018-09-24T06:46:51.380Z,30.14
2018-09-24T06:49:31.440Z,30.14
2018-09-24T06:52:11.229Z,30.17
2018-09-24T06:54:51.278Z,30.16
2018-09-24T06:57:30.996Z,30.16
2018-09-24T07:02:26.825Z,30.18
2018-09-24T07:05:07.055Z,30.18
2018-09-24T07:07:47.054Z,30.19
2018-09-24T07:10:27.029Z,30.21
2018-09-24T07:13:06.810Z,30.20
2018-09-24T07:15:47.069Z,30.20
2018-09-24T07:18:27.041Z,30.21
2018-09-24T07:21:07.030Z,30.20
2018-09-24T07:23:47.100Z,30.19
2018-09-24T07:26:27.034Z,30.17
2018-09-24T07:29:07.245Z,30.15
2018-09-24T07:31:48.050Z,30.11
2018-09-24T07:34:28.069Z,30.10
2018-09-24T07:37:08.241Z,30.11
2018-09-24T07:39:48.078Z,30.10
2018-09-24T07:42:28.409Z,30.08
2018-09-24T07:45:08.400Z,30.08
2018-09-24T07:47:48.825Z,30.06
2018-09-24T07:50:28.813Z,30.05
2018-09-24T07:53:09.248Z,30.03
2018-09-24T07:55:49.263Z,30.02
2018-09-24T07:58:29.307Z,30.02
2018-09-24T08:01:09.302Z,30.00
2018-09-24T08:03:49.406Z,30.00
2018-09-24T08:06:29.860Z,29.97
2018-09-24T08:09:10.114Z,29.97
2018-09-24T08:11:50.206Z,29.96
2018-09-24T08:14:30.364Z,29.94
2018-09-24T08:17:10.078Z,29.94
2018-09-24T08:19:50.070Z,29.92
2018-09-24T08:22:30.394Z,29.91
2018-09-24T08:25:10.437Z,29.90
2018-09-24T08:27:50.729Z,29.89
2018-09-24T08:30:31.013Z,29.89
2018-09-24T08:33:11.253Z,29.89
2018-09-24T08:35:51.084Z,29.88
2018-09-24T08:38:31.004Z,29.87
2018-09-24T08:41:11.061Z,29.88
2018-09-24T08:43:51.086Z,29.85
2018-09-24T08:46:31.424Z,29.85
2018-09-24T08:49:11.482Z,29.85
2018-09-24T08:51:51.761Z,29.83
2018-09-24T08:54:31.709Z,29.83
2018-09-24T08:57:12.317Z,29.80
2018-09-24T08:59:52.278Z,29.78
2018-09-24T09:02:32.672Z,29.77
2018-09-24T09:05:12.842Z,29.76
2018-09-24T09:07:52.757Z,29.74
2018-09-24T09:10:32.881Z,29.73
2018-09-24T09:13:12.921Z,29.71
2018-09-24T09:15:52.780Z,29.70
2018-09-24T09:18:33.069Z,29.69
2018-09-24T09:21:13.061Z,29.65
2018-09-24T09:23:53.130Z,29.65
2018-09-24T09:26:33.227Z,29.63
2018-09-24T09:29:13.269Z,29.61
2018-09-24T09:31:53.273Z,29.61
2018-09-24T09:34:33.453Z,29.59
2018-09-24T09:37:13.475Z,29.58
2018-09-24T09:39:53.973Z,29.56
2018-09-24T09:42:34.119Z,29.54
2018-09-24T09:45:13.889Z,29.52
2018-09-24T09:47:54.284Z,29.52
2018-09-24T09:50:34.236Z,29.49
2018-09-24T09:53:14.240Z,29.49
2018-09-24T09:55:54.292Z,29.46
2018-09-24T09:58:34.096Z,29.46
2018-09-24T10:01:14.051Z,29.44
2018-09-24T10:03:54.424Z,29.44
2018-09-24T10:06:34.288Z,29.41
2018-09-24T10:09:16.882Z,29.42
2018-09-24T10:11:57.248Z,29.40
2018-09-24T10:14:37.625Z,29.37
2018-09-24T10:17:17.930Z,29.37
2018-09-24T10:19:58.250Z,29.34
2018-09-24T10:22:38.327Z,29.31
2018-09-24T10:25:18.405Z,29.28
2018-09-24T10:27:58.125Z,29.28
2018-09-24T10:30:38.253Z,29.24
2018-09-24T10:33:18.193Z,29.22
2018-09-24T10:35:58.894Z,29.21
2018-09-24T10:38:39.309Z,29.20
2018-09-24T10:41:19.291Z,29.18
2018-09-24T10:43:59.377Z,29.17
2018-09-24T10:46:39.316Z,29.15
2018-09-24T10:49:19.140Z,29.13
2018-09-24T10:51:58.986Z,29.12
2018-09-24T10:54:38.942Z,29.10
2018-09-24T10:57:19.072Z,29.08
2018-09-24T10:59:59.465Z,29.07
2018-09-24T11:02:39.750Z,29.06
2018-09-24T11:05:19.301Z,29.05
2018-09-24T11:07:59.226Z,29.03
2018-09-24T11:10:39.041Z,29.02
2018-09-24T11:13:18.807Z,28.99
2018-09-24T11:15:59.143Z,28.98
2018-09-24T11:18:39.398Z,28.96
2018-09-24T11:21:19.872Z,28.95
2018-09-24T11:23:59.833Z,28.95
2018-09-24T11:26:40.373Z,28.93
2018-09-24T11:29:20.229Z,28.92
2018-09-24T11:32:00.230Z,28.91
2018-09-24T11:34:40.166Z,28.89
2018-09-24T11:37:19.947Z,28.90
2018-09-24T11:40:00.223Z,28.89
2018-09-24T11:42:40.271Z,28.87
2018-09-24T11:45:20.173Z,28.87
2018-09-24T11:48:00.070Z,28.85
2018-09-24T11:50:40.222Z,28.83
2018-09-24T11:53:19.965Z,28.80
2018-09-24T11:56:00.031Z,28.78
2018-09-24T11:58:40.176Z,28.78
2018-09-24T12:01:19.953Z,28.75
2018-09-24T12:04:00.225Z,28.73
2018-09-24T12:06:40.225Z,28.73
2018-09-24T12:09:20.814Z,28.71
2018-09-24T12:12:00.944Z,28.70
2018-09-24T12:14:40.801Z,28.67
2018-09-24T12:17:20.843Z,28.65
2018-09-24T12:20:00.673Z,28.65
2018-09-24T12:22:41.058Z,28.64
2018-09-24T12:25:21.240Z,28.64
2018-09-24T12:28:01.642Z,28.63
2018-09-24T12:30:41.269Z,28.60
2018-09-24T12:33:21.264Z,28.60
2018-09-24T12:36:01.405Z,28.58
2018-09-24T12:38:41.233Z,28.57
2018-09-24T12:41:21.033Z,28.56
2018-09-24T12:44:00.988Z,28.55
2018-09-24T12:46:40.949Z,28.54
2018-09-24T12:49:20.814Z,28.53
2018-09-24T12:52:00.818Z,28.51
2018-09-24T12:54:40.986Z,28.51
2018-09-24T12:57:21.418Z,28.50
2018-09-24T13:00:01.533Z,28.50
2018-09-24T13:02:41.198Z,28.48
2018-09-24T13:05:21.831Z,28.46
2018-09-24T13:08:02.039Z,28.46
2018-09-24T13:10:42.249Z,28.42
2018-09-24T13:13:22.074Z,28.41
2018-09-24T13:16:02.510Z,28.39
2018-09-24T13:18:42.356Z,28.35
2018-09-24T13:21:22.410Z,28.32
2018-09-24T13:24:02.258Z,28.29
2018-09-24T13:26:42.253Z,28.25
2018-09-24T13:29:22.286Z,28.23
2018-09-24T13:32:02.046Z,28.20
2018-09-24T13:34:41.824Z,28.17
2018-09-24T13:37:22.081Z,28.13
2018-09-24T13:40:02.211Z,28.07
2018-09-24T13:42:42.397Z,28.04
2018-09-24T13:45:22.054Z,28.01
2018-09-24T13:48:02.104Z,28.00
2018-09-24T13:50:41.840Z,27.96
2018-09-24T13:53:22.015Z,27.95
2018-09-24T13:56:01.985Z,27.93
2018-09-24T13:58:42.261Z,27.90
2018-09-24T14:01:22.216Z,27.88
2018-09-24T14:04:02.262Z,27.86
2018-09-24T14:06:42.129Z,27.83
2018-09-24T14:09:23.085Z,27.79
2018-09-24T14:12:03.437Z,27.77
2018-09-24T14:14:43.255Z,27.73
2018-09-24T14:17:23.329Z,27.70
2018-09-24T14:20:03.734Z,27.68
2018-09-24T14:22:44.095Z,27.66
2018-09-24T14:25:24.043Z,27.63
2018-09-24T14:28:04.097Z,27.59
2018-09-24T14:30:43.939Z,27.57
2018-09-24T14:33:24.009Z,27.55
2018-09-24T14:36:03.940Z,27.53
2018-09-24T14:38:46.717Z,27.52
2018-09-24T14:41:26.409Z,27.50
2018-09-24T14:44:07.018Z,27.48
2018-09-24T14:46:47.125Z,27.45
2018-09-24T14:49:29.316Z,27.43
2018-09-24T14:52:09.449Z,27.40
2018-09-24T14:54:49.833Z,27.37
2018-09-24T14:57:29.854Z,27.36
2018-09-24T15:00:10.303Z,27.36
2018-09-24T15:02:50.120Z,27.35
2018-09-24T15:05:30.620Z,27.33
2018-09-24T15:08:11.121Z,27.30
2018-09-24T15:10:51.283Z,27.28
2018-09-24T15:13:31.638Z,27.28
2018-09-24T15:16:11.384Z,27.24
2018-09-24T15:18:51.449Z,27.25
2018-09-24T15:21:31.524Z,27.24
2018-09-24T15:24:11.645Z,27.25
2018-09-24T15:26:51.818Z,27.21
2018-09-24T15:29:31.925Z,27.24
2018-09-24T15:32:12.214Z,27.24
2018-09-24T15:34:52.265Z,27.22
2018-09-24T15:37:32.385Z,27.21
2018-09-24T15:40:12.219Z,27.22
2018-09-24T15:42:52.217Z,27.21
2018-09-24T15:45:32.041Z,27.22
2018-09-24T15:48:11.465Z,27.22
2018-09-24T15:50:50.726Z,27.22
2018-09-24T15:53:30.049Z,27.19
2018-09-24T15:56:09.498Z,27.19
2018-09-24T15:58:48.952Z,27.17
2018-09-24T16:01:29.048Z,27.17
2018-09-24T16:04:08.766Z,27.16
2018-09-24T16:06:48.222Z,27.16
2018-09-24T16:09:27.810Z,27.17
2018-09-24T16:12:07.252Z,27.16
2018-09-24T16:14:47.040Z,27.14
2018-09-24T16:17:26.771Z,27.13
2018-09-24T16:20:06.398Z,27.17
2018-09-24T16:22:46.617Z,27.19
2018-09-24T16:25:26.260Z,27.23
2018-09-24T16:28:06.066Z,27.26
2018-09-24T16:30:46.049Z,27.29
2018-09-24T16:33:26.405Z,27.30
2018-09-24T16:38:40.634Z,27.31
2018-09-24T16:41:21.241Z,27.33
2018-09-24T16:44:00.912Z,27.34
2018-09-24T16:46:41.072Z,27.35
2018-09-24T16:49:21.058Z,27.38
2018-09-24T16:52:01.236Z,27.40
2018-09-24T16:54:41.436Z,27.42
2018-09-24T16:57:21.153Z,27.43
2018-09-24T17:00:00.841Z,27.45
2018-09-24T17:02:40.677Z,27.45
2018-09-24T17:05:20.441Z,27.49
2018-09-24T17:07:59.820Z,27.51
2018-09-24T17:10:39.665Z,27.53
2018-09-24T17:13:19.233Z,27.56
2018-09-24T17:15:59.048Z,27.58
2018-09-24T17:18:38.869Z,27.60
2018-09-24T17:21:18.356Z,27.60
2018-09-24T17:23:57.826Z,27.61
2018-09-24T17:26:37.047Z,27.62
2018-09-24T17:29:17.001Z,27.64
2018-09-24T17:31:57.932Z,27.65
2018-09-24T17:34:37.530Z,27.70
2018-09-24T17:37:17.077Z,27.73
2018-09-24T17:39:56.904Z,27.73
2018-09-24T17:42:37.242Z,27.76
2018-09-24T17:45:16.846Z,27.80
2018-09-24T17:47:56.850Z,27.83
2018-09-24T17:50:36.988Z,27.85
2018-09-24T17:53:16.781Z,27.88
2018-09-24T17:55:57.057Z,27.90
2018-09-24T17:58:36.651Z,27.92
2018-09-24T18:01:16.449Z,27.95
2018-09-24T18:03:55.945Z,27.97
2018-09-24T18:06:35.435Z,28.01
2018-09-24T18:09:16.262Z,28.02
2018-09-24T18:11:55.553Z,28.04
2018-09-24T18:14:34.854Z,28.06
2018-09-24T18:17:14.521Z,28.07
2018-09-24T18:19:53.908Z,28.08
2018-09-24T18:22:34.099Z,28.10
2018-09-24T18:25:13.632Z,28.13
2018-09-24T18:27:52.914Z,28.14
2018-09-24T18:30:32.790Z,28.18
2018-09-24T18:33:12.706Z,28.17
2018-09-24T18:35:52.221Z,28.21
2018-09-24T18:38:31.932Z,28.22
2018-09-24T18:41:11.457Z,28.24
2018-09-24T18:43:51.222Z,28.26
2018-09-24T18:46:31.003Z,28.27
2018-09-24T18:49:10.901Z,28.29
2018-09-24T18:51:50.717Z,28.31
2018-09-24T18:54:30.274Z,28.33
2018-09-24T18:57:10.109Z,28.32
2018-09-24T18:59:50.331Z,28.34
2018-09-24T19:02:29.939Z,28.36
2018-09-24T19:05:09.757Z,28.38
2018-09-24T19:07:49.129Z,28.39
2018-09-24T19:10:28.836Z,28.42
2018-09-24T19:13:08.506Z,28.45
2018-09-24T19:15:48.346Z,28.48
2018-09-24T19:18:27.932Z,28.49
2018-09-24T19:21:07.517Z,28.50
2018-09-24T19:23:47.284Z,28.50
2018-09-24T19:26:27.023Z,28.50
2018-09-24T19:29:06.706Z,28.52
2018-09-24T19:31:46.480Z,28.54
2018-09-24T19:34:26.114Z,28.56
2018-09-24T19:37:05.832Z,28.60
2018-09-24T19:39:45.418Z,28.60
2018-09-24T19:42:25.048Z,28.63
2018-09-24T19:45:04.842Z,28.66
2018-09-24T19:47:42.732Z,28.67
2018-09-24T19:50:22.119Z,28.67
2018-09-24T19:53:01.941Z,28.69
2018-09-24T19:55:41.729Z,28.71
2018-09-24T19:58:21.442Z,28.73
2018-09-24T20:01:01.112Z,28.79
2018-09-24T20:03:40.889Z,28.81
2018-09-24T20:06:20.757Z,28.86
2018-09-24T20:09:00.297Z,28.88
2018-09-24T20:11:39.583Z,28.93
2018-09-24T20:14:19.280Z,28.98
2018-09-24T20:16:58.957Z,29.02
2018-09-24T20:19:38.823Z,29.06
2018-09-24T20:22:18.720Z,29.11
2018-09-24T20:24:58.460Z,29.16
2018-09-24T20:27:38.255Z,29.19
2018-09-24T20:30:18.024Z,29.23
2018-09-24T20:32:57.807Z,29.26
2018-09-24T20:35:37.518Z,29.32
2018-09-24T20:38:17.080Z,29.35
2018-09-24T20:40:56.893Z,29.38
2018-09-24T20:46:27.111Z,29.39
2018-09-24T20:49:06.473Z,29.44
2018-09-24T20:51:45.885Z,29.49
2018-09-24T20:54:25.317Z,29.53
2018-09-24T20:57:04.765Z,29.57
2018-09-24T20:59:44.321Z,29.60
2018-09-24T21:02:23.602Z,29.62
2018-09-24T21:05:03.176Z,29.64
2018-09-24T21:07:42.761Z,29.67
2018-09-24T21:10:22.483Z,29.73
2018-09-24T21:13:01.997Z,29.76
2018-09-24T21:15:41.991Z,29.80
2018-09-24T21:18:21.599Z,29.84
2018-09-24T21:21:01.306Z,29.88
2018-09-24T21:23:40.833Z,29.91
2018-09-24T21:28:38.993Z,29.95
2018-09-24T21:31:19.066Z,30.00
2018-09-24T21:33:58.531Z,30.04
2018-09-24T21:36:38.278Z,30.07
2018-09-24T21:39:17.956Z,30.11
2018-09-24T21:41:57.859Z,30.15
2018-09-24T21:44:37.578Z,30.19
2018-09-24T21:47:17.949Z,30.22
2018-09-24T21:49:57.733Z,30.22
2018-09-24T21:52:38.175Z,30.25
2018-09-24T21:55:17.813Z,30.27
2018-09-24T21:57:57.341Z,30.29
2018-09-24T22:00:36.889Z,30.30
2018-09-24T22:03:16.337Z,30.32
2018-09-24T22:05:55.999Z,30.34
2018-09-24T22:08:35.917Z,30.38
2018-09-24T22:11:15.616Z,30.40
2018-09-24T22:13:55.123Z,30.42
2018-09-24T22:16:35.352Z,30.44
2018-09-24T22:19:15.344Z,30.46
2018-09-24T22:21:55.024Z,30.49
2018-09-24T22:24:34.917Z,30.53
2018-09-24T22:27:14.529Z,30.57
2018-09-24T22:29:54.180Z,30.59
2018-09-24T22:32:33.934Z,30.62
2018-09-24T22:35:13.879Z,30.66
2018-09-24T22:37:53.417Z,30.69
2018-09-24T22:40:33.153Z,30.74
2018-09-24T22:43:12.747Z,30.78
2018-09-24T22:45:52.346Z,30.82
2018-09-24T22:48:32.919Z,30.84
2018-09-24T22:51:12.182Z,30.85
2018-09-24T22:53:51.517Z,30.91
2018-09-24T22:56:31.372Z,30.92
2018-09-24T22:59:11.065Z,30.97
2018-09-24T23:01:50.833Z,31.00
2018-09-24T23:04:30.559Z,31.02
2018-09-24T23:07:10.517Z,31.04
2018-09-24T23:12:08.073Z,31.06
2018-09-24T23:14:47.827Z,31.09
2018-09-24T23:17:27.522Z,31.11
2018-09-24T23:20:07.004Z,31.12
2018-09-24T23:22:46.769Z,31.12
2018-09-24T23:25:26.497Z,31.14
2018-09-24T23:28:06.137Z,31.14
2018-09-24T23:30:45.910Z,31.16
2018-09-24T23:33:25.211Z,31.16
2018-09-24T23:36:04.645Z,31.17
2018-09-24T23:38:44.203Z,31.18
2018-09-24T23:41:23.805Z,31.19
2018-09-24T23:44:03.544Z,31.18
2018-09-24T23:46:42.962Z,31.18
2018-09-24T23:49:22.901Z,31.20
2018-09-24T23:52:02.848Z,31.20
2018-09-24T23:54:42.501Z,31.21
2018-09-24T23:57:22.026Z,31.21
